Great Mills, Maryland
Current Conditions -  °F | °C
As of 12:11 AM on Thursday 23 Oct 2014 (Local Time) from K2W6 Reporting Station
Overcast Overcast  
Wind Chill: 52°   Ceiling: 5000
Heat Index: 52°   Visibility: 10mi
Dew Point: 43°   Wind: 7mph
Humidity: 71%   Direction: 290°WNW
Pressure: 29.9"   Gusts: 17mph
Location:  38.24°N, 76.5°W
Report Text: K2W6 230411Z AUTO 29006G15KT 10SM SCT037 SCT045 OVC050 11/06 A2990 RMK AO1
Loading
Personal Weather Stations






























Interactive Weather Map
Tropical Storm Tracking
New forecast layout! Learn more

10-Day Weather Forecast

Advertisements
Track Severe Weather on mobile